sensor_id;sensor_type;location;lat;lon;timestamp;P1;durP1;ratioP1;P2;durP2;ratioP2
47431;SDS011;33183;52.290;6.144;2022-08-19T00:02:01;1.38;;;1.27;;
47431;SDS011;33183;52.290;6.144;2022-08-19T00:04:30;1.88;;;1.35;;
47431;SDS011;33183;52.290;6.144;2022-08-19T00:06:57;1.30;;;1.15;;
47431;SDS011;33183;52.290;6.144;2022-08-19T00:09:24;1.38;;;1.25;;
47431;SDS011;33183;52.290;6.144;2022-08-19T00:11:50;1.50;;;1.20;;
47431;SDS011;33183;52.290;6.144;2022-08-19T00:14:16;1.75;;;1.30;;
47431;SDS011;33183;52.290;6.144;2022-08-19T00:16:43;1.73;;;1.48;;
47431;SDS011;33183;52.290;6.144;2022-08-19T00:19:09;1.83;;;1.40;;
47431;SDS011;33183;52.290;6.144;2022-08-19T00:21:34;1.58;;;1.38;;
47431;SDS011;33183;52.290;6.144;2022-08-19T00:24:04;1.48;;;1.38;;
47431;SDS011;33183;52.290;6.144;2022-08-19T00:26:31;2.60;;;1.40;;
47431;SDS011;33183;52.290;6.144;2022-08-19T00:28:56;1.17;;;1.08;;
47431;SDS011;33183;52.290;6.144;2022-08-19T00:31:21;1.45;;;1.33;;
47431;SDS011;33183;52.290;6.144;2022-08-19T00:33:47;2.95;;;1.50;;
47431;SDS011;33183;52.290;6.144;2022-08-19T00:36:14;2.25;;;1.30;;
47431;SDS011;33183;52.290;6.144;2022-08-19T00:38:39;2.40;;;1.40;;
47431;SDS011;33183;52.290;6.144;2022-08-19T00:41:08;2.33;;;1.40;;
47431;SDS011;33183;52.290;6.144;2022-08-19T00:43:35;2.47;;;1.45;;
47431;SDS011;33183;52.290;6.144;2022-08-19T00:46:00;1.63;;;1.52;;
47431;SDS011;33183;52.290;6.144;2022-08-19T00:48:29;1.70;;;1.60;;
47431;SDS011;33183;52.290;6.144;2022-08-19T00:50:56;2.00;;;1.60;;
47431;SDS011;33183;52.290;6.144;2022-08-19T00:53:22;2.03;;;1.40;;
47431;SDS011;33183;52.290;6.144;2022-08-19T00:55:51;1.65;;;1.33;;
47431;SDS011;33183;52.290;6.144;2022-08-19T00:58:19;1.85;;;1.60;;
47431;SDS011;33183;52.290;6.144;2022-08-19T01:00:46;2.25;;;1.75;;
47431;SDS011;33183;52.290;6.144;2022-08-19T01:03:14;1.95;;;1.40;;
47431;SDS011;33183;52.290;6.144;2022-08-19T01:05:42;1.95;;;1.40;;
47431;SDS011;33183;52.290;6.144;2022-08-19T01:08:08;2.90;;;1.50;;
47431;SDS011;33183;52.290;6.144;2022-08-19T01:10:39;2.17;;;1.90;;
47431;SDS011;33183;52.290;6.144;2022-08-19T01:13:07;2.20;;;1.30;;
47431;SDS011;33183;52.290;6.144;2022-08-19T01:15:34;1.70;;;1.33;;
47431;SDS011;33183;52.290;6.144;2022-08-19T01:18:10;1.65;;;1.13;;
47431;SDS011;33183;52.290;6.144;2022-08-19T01:20:36;1.52;;;1.05;;
47431;SDS011;33183;52.290;6.144;2022-08-19T01:23:02;2.53;;;1.50;;
47431;SDS011;33183;52.290;6.144;2022-08-19T01:25:30;1.65;;;1.20;;
47431;SDS011;33183;52.290;6.144;2022-08-19T01:27:58;1.50;;;1.33;;
47431;SDS011;33183;52.290;6.144;2022-08-19T01:30:25;2.15;;;1.50;;
47431;SDS011;33183;52.290;6.144;2022-08-19T01:32:56;1.45;;;1.35;;
47431;SDS011;33183;52.290;6.144;2022-08-19T01:35:23;2.20;;;1.60;;
47431;SDS011;33183;52.290;6.144;2022-08-19T01:37:54;2.20;;;1.65;;
47431;SDS011;33183;52.290;6.144;2022-08-19T01:40:22;3.25;;;1.42;;
47431;SDS011;33183;52.290;6.144;2022-08-19T01:42:51;1.73;;;1.50;;
47431;SDS011;33183;52.290;6.144;2022-08-19T01:45:18;4.47;;;1.95;;
47431;SDS011;33183;52.290;6.144;2022-08-19T01:47:44;2.08;;;1.60;;
47431;SDS011;33183;52.290;6.144;2022-08-19T01:50:10;2.88;;;1.30;;
47431;SDS011;33183;52.290;6.144;2022-08-19T01:52:36;1.40;;;1.27;;
47431;SDS011;33183;52.290;6.144;2022-08-19T01:55:03;1.63;;;1.25;;
47431;SDS011;33183;52.290;6.144;2022-08-19T01:57:29;2.28;;;1.33;;
47431;SDS011;33183;52.290;6.144;2022-08-19T01:59:56;1.58;;;1.48;;
47431;SDS011;33183;52.290;6.144;2022-08-19T02:02:21;1.52;;;1.30;;
47431;SDS011;33183;52.290;6.144;2022-08-19T02:04:47;1.88;;;1.38;;
47431;SDS011;33183;52.290;6.144;2022-08-19T02:07:13;1.20;;;1.10;;
47431;SDS011;33183;52.290;6.144;2022-08-19T02:09:38;1.33;;;1.13;;
47431;SDS011;33183;52.290;6.144;2022-08-19T02:12:04;2.05;;;1.20;;
47431;SDS011;33183;52.290;6.144;2022-08-19T02:14:33;4.03;;;1.55;;
47431;SDS011;33183;52.290;6.144;2022-08-19T02:16:59;1.63;;;1.52;;
47431;SDS011;33183;52.290;6.144;2022-08-19T02:19:24;1.73;;;1.30;;
47431;SDS011;33183;52.290;6.144;2022-08-19T02:21:49;2.38;;;1.27;;
47431;SDS011;33183;52.290;6.144;2022-08-19T02:24:14;1.83;;;1.20;;
47431;SDS011;33183;52.290;6.144;2022-08-19T02:26:40;1.52;;;1.00;;
47431;SDS011;33183;52.290;6.144;2022-08-19T02:29:05;1.83;;;1.30;;
47431;SDS011;33183;52.290;6.144;2022-08-19T02:31:30;3.05;;;1.50;;
47431;SDS011;33183;52.290;6.144;2022-08-19T02:33:56;2.45;;;1.13;;
47431;SDS011;33183;52.290;6.144;2022-08-19T02:36:22;1.20;;;1.10;;
47431;SDS011;33183;52.290;6.144;2022-08-19T02:38:48;1.17;;;1.08;;
47431;SDS011;33183;52.290;6.144;2022-08-19T02:41:17;1.75;;;1.27;;
47431;SDS011;33183;52.290;6.144;2022-08-19T02:43:44;1.80;;;1.40;;
47431;SDS011;33183;52.290;6.144;2022-08-19T02:48:39;1.92;;;1.30;;
47431;SDS011;33183;52.290;6.144;2022-08-19T02:51:05;1.50;;;1.08;;
47431;SDS011;33183;52.290;6.144;2022-08-19T02:53:30;1.27;;;1.15;;
47431;SDS011;33183;52.290;6.144;2022-08-19T02:55:55;1.50;;;1.23;;
47431;SDS011;33183;52.290;6.144;2022-08-19T02:58:21;1.25;;;1.15;;
47431;SDS011;33183;52.290;6.144;2022-08-19T03:00:50;1.45;;;1.33;;
47431;SDS011;33183;52.290;6.144;2022-08-19T03:03:18;1.52;;;1.30;;
47431;SDS011;33183;52.290;6.144;2022-08-19T03:05:43;2.38;;;1.30;;
47431;SDS011;33183;52.290;6.144;2022-08-19T03:08:09;1.40;;;1.25;;
47431;SDS011;33183;52.290;6.144;2022-08-19T03:10:55;1.20;;;1.10;;
47431;SDS011;33183;52.290;6.144;2022-08-19T03:13:20;1.52;;;1.20;;
47431;SDS011;33183;52.290;6.144;2022-08-19T03:15:46;1.02;;;0.98;;
47431;SDS011;33183;52.290;6.144;2022-08-19T03:18:12;1.10;;;1.00;;
47431;SDS011;33183;52.290;6.144;2022-08-19T03:20:46;2.33;;;1.25;;
47431;SDS011;33183;52.290;6.144;2022-08-19T03:23:13;1.30;;;1.02;;
47431;SDS011;33183;52.290;6.144;2022-08-19T03:25:40;1.30;;;1.20;;
47431;SDS011;33183;52.290;6.144;2022-08-19T03:28:07;1.73;;;1.13;;
47431;SDS011;33183;52.290;6.144;2022-08-19T03:30:33;1.42;;;1.08;;
47431;SDS011;33183;52.290;6.144;2022-08-19T03:32:58;0.77;;;0.75;;
47431;SDS011;33183;52.290;6.144;2022-08-19T03:35:24;2.92;;;1.10;;
47431;SDS011;33183;52.290;6.144;2022-08-19T03:37:49;1.05;;;0.95;;
47431;SDS011;33183;52.290;6.144;2022-08-19T03:40:14;1.52;;;1.15;;
47431;SDS011;33183;52.290;6.144;2022-08-19T03:42:39;1.73;;;1.02;;
47431;SDS011;33183;52.290;6.144;2022-08-19T03:45:07;1.48;;;1.10;;
47431;SDS011;33183;52.290;6.144;2022-08-19T03:47:33;1.70;;;1.00;;
47431;SDS011;33183;52.290;6.144;2022-08-19T03:49:58;1.05;;;0.90;;
47431;SDS011;33183;52.290;6.144;2022-08-19T03:52:23;1.63;;;1.17;;
47431;SDS011;33183;52.290;6.144;2022-08-19T03:54:48;1.08;;;0.90;;
47431;SDS011;33183;52.290;6.144;2022-08-19T03:57:14;1.45;;;1.30;;
47431;SDS011;33183;52.290;6.144;2022-08-19T03:59:39;1.15;;;1.05;;
47431;SDS011;33183;52.290;6.144;2022-08-19T04:02:09;1.23;;;1.02;;
47431;SDS011;33183;52.290;6.144;2022-08-19T04:04:36;1.75;;;1.35;;
47431;SDS011;33183;52.290;6.144;2022-08-19T04:07:02;1.33;;;1.23;;
47431;SDS011;33183;52.290;6.144;2022-08-19T04:09:28;1.40;;;1.10;;
47431;SDS011;33183;52.290;6.144;2022-08-19T04:11:54;1.08;;;0.85;;
47431;SDS011;33183;52.290;6.144;2022-08-19T04:14:22;1.10;;;1.00;;
47431;SDS011;33183;52.290;6.144;2022-08-19T04:16:51;1.23;;;0.88;;
47431;SDS011;33183;52.290;6.144;2022-08-19T04:19:17;2.60;;;1.05;;
47431;SDS011;33183;52.290;6.144;2022-08-19T04:21:45;1.17;;;0.90;;
47431;SDS011;33183;52.290;6.144;2022-08-19T04:24:11;1.38;;;1.00;;
47431;SDS011;33183;52.290;6.144;2022-08-19T04:26:37;0.80;;;0.70;;
47431;SDS011;33183;52.290;6.144;2022-08-19T04:29:05;1.48;;;1.10;;
47431;SDS011;33183;52.290;6.144;2022-08-19T04:31:32;1.38;;;0.90;;
47431;SDS011;33183;52.290;6.144;2022-08-19T04:34:01;2.77;;;0.93;;
47431;SDS011;33183;52.290;6.144;2022-08-19T04:36:30;1.13;;;1.00;;
47431;SDS011;33183;52.290;6.144;2022-08-19T04:38:58;1.13;;;1.02;;
47431;SDS011;33183;52.290;6.144;2022-08-19T04:41:25;0.95;;;0.85;;
47431;SDS011;33183;52.290;6.144;2022-08-19T04:44:13;1.13;;;0.98;;
47431;SDS011;33183;52.290;6.144;2022-08-19T04:46:39;2.13;;;0.93;;
47431;SDS011;33183;52.290;6.144;2022-08-19T04:49:05;1.20;;;1.00;;
47431;SDS011;33183;52.290;6.144;2022-08-19T04:51:33;1.20;;;0.85;;
47431;SDS011;33183;52.290;6.144;2022-08-19T04:54:00;1.50;;;0.95;;
47431;SDS011;33183;52.290;6.144;2022-08-19T04:56:26;0.70;;;0.70;;
47431;SDS011;33183;52.290;6.144;2022-08-19T04:58:52;1.17;;;1.08;;
47431;SDS011;33183;52.290;6.144;2022-08-19T05:01:22;1.25;;;0.80;;
47431;SDS011;33183;52.290;6.144;2022-08-19T05:03:49;0.60;;;0.60;;
47431;SDS011;33183;52.290;6.144;2022-08-19T05:06:15;1.00;;;0.75;;
47431;SDS011;33183;52.290;6.144;2022-08-19T05:08:42;1.10;;;0.85;;
47431;SDS011;33183;52.290;6.144;2022-08-19T05:11:10;0.80;;;0.80;;
47431;SDS011;33183;52.290;6.144;2022-08-19T05:13:36;0.95;;;0.80;;
47431;SDS011;33183;52.290;6.144;2022-08-19T05:16:02;2.15;;;0.95;;
47431;SDS011;33183;52.290;6.144;2022-08-19T05:18:28;0.80;;;0.80;;
47431;SDS011;33183;52.290;6.144;2022-08-19T05:21:12;0.88;;;0.60;;
47431;SDS011;33183;52.290;6.144;2022-08-19T05:23:58;1.20;;;0.80;;
47431;SDS011;33183;52.290;6.144;2022-08-19T05:26:24;2.05;;;1.15;;
47431;SDS011;33183;52.290;6.144;2022-08-19T05:28:54;0.80;;;0.60;;
47431;SDS011;33183;52.290;6.144;2022-08-19T05:31:19;0.80;;;0.80;;
47431;SDS011;33183;52.290;6.144;2022-08-19T05:33:45;0.90;;;0.80;;
47431;SDS011;33183;52.290;6.144;2022-08-19T05:36:11;1.40;;;0.75;;
47431;SDS011;33183;52.290;6.144;2022-08-19T05:38:36;1.00;;;0.90;;
47431;SDS011;33183;52.290;6.144;2022-08-19T05:41:20;0.98;;;0.93;;
47431;SDS011;33183;52.290;6.144;2022-08-19T05:44:00;1.15;;;0.85;;
47431;SDS011;33183;52.290;6.144;2022-08-19T05:46:26;1.08;;;0.77;;
47431;SDS011;33183;52.290;6.144;2022-08-19T05:48:52;0.90;;;0.77;;
47431;SDS011;33183;52.290;6.144;2022-08-19T05:51:18;0.93;;;0.80;;
47431;SDS011;33183;52.290;6.144;2022-08-19T05:53:43;1.10;;;1.00;;
47431;SDS011;33183;52.290;6.144;2022-08-19T05:56:12;1.15;;;0.80;;
47431;SDS011;33183;52.290;6.144;2022-08-19T05:58:39;1.05;;;0.90;;
47431;SDS011;33183;52.290;6.144;2022-08-19T06:01:09;1.10;;;1.00;;
47431;SDS011;33183;52.290;6.144;2022-08-19T06:03:35;0.70;;;0.68;;
47431;SDS011;33183;52.290;6.144;2022-08-19T06:06:02;1.42;;;0.93;;
47431;SDS011;33183;52.290;6.144;2022-08-19T06:08:29;1.00;;;0.80;;
47431;SDS011;33183;52.290;6.144;2022-08-19T06:10:54;1.10;;;1.00;;
47431;SDS011;33183;52.290;6.144;2022-08-19T06:13:20;0.85;;;0.82;;
47431;SDS011;33183;52.290;6.144;2022-08-19T06:15:46;1.08;;;0.70;;
47431;SDS011;33183;52.290;6.144;2022-08-19T06:18:12;0.75;;;0.75;;
47431;SDS011;33183;52.290;6.144;2022-08-19T06:20:38;0.82;;;0.70;;
47431;SDS011;33183;52.290;6.144;2022-08-19T06:23:03;5.75;;;1.10;;
47431;SDS011;33183;52.290;6.144;2022-08-19T06:25:29;2.08;;;1.00;;
47431;SDS011;33183;52.290;6.144;2022-08-19T06:27:54;1.13;;;1.00;;
47431;SDS011;33183;52.290;6.144;2022-08-19T06:30:20;1.20;;;1.00;;
47431;SDS011;33183;52.290;6.144;2022-08-19T06:32:45;1.48;;;1.20;;
47431;SDS011;33183;52.290;6.144;2022-08-19T06:35:10;1.10;;;1.00;;
47431;SDS011;33183;52.290;6.144;2022-08-19T06:37:36;1.50;;;1.00;;
47431;SDS011;33183;52.290;6.144;2022-08-19T06:40:02;1.40;;;1.13;;
47431;SDS011;33183;52.290;6.144;2022-08-19T06:42:27;1.95;;;0.93;;
47431;SDS011;33183;52.290;6.144;2022-08-19T06:44:53;1.50;;;1.20;;
47431;SDS011;33183;52.290;6.144;2022-08-19T06:47:19;2.55;;;1.25;;
47431;SDS011;33183;52.290;6.144;2022-08-19T06:49:45;1.67;;;1.00;;
47431;SDS011;33183;52.290;6.144;2022-08-19T06:52:10;1.70;;;1.25;;
47431;SDS011;33183;52.290;6.144;2022-08-19T06:54:37;1.90;;;1.23;;
47431;SDS011;33183;52.290;6.144;2022-08-19T06:57:04;1.58;;;1.33;;
47431;SDS011;33183;52.290;6.144;2022-08-19T06:59:31;1.45;;;1.23;;
47431;SDS011;33183;52.290;6.144;2022-08-19T07:01:58;1.50;;;1.10;;
47431;SDS011;33183;52.290;6.144;2022-08-19T07:04:26;1.35;;;1.20;;
47431;SDS011;33183;52.290;6.144;2022-08-19T07:06:57;2.58;;;1.17;;
47431;SDS011;33183;52.290;6.144;2022-08-19T07:09:24;1.95;;;1.35;;
47431;SDS011;33183;52.290;6.144;2022-08-19T07:11:50;1.52;;;1.33;;
47431;SDS011;33183;52.290;6.144;2022-08-19T07:14:18;1.90;;;1.10;;
47431;SDS011;33183;52.290;6.144;2022-08-19T07:16:49;1.35;;;1.13;;
47431;SDS011;33183;52.290;6.144;2022-08-19T07:19:15;1.92;;;1.30;;
47431;SDS011;33183;52.290;6.144;2022-08-19T07:21:41;1.80;;;1.58;;
47431;SDS011;33183;52.290;6.144;2022-08-19T07:24:07;1.38;;;1.20;;
47431;SDS011;33183;52.290;6.144;2022-08-19T07:26:33;1.55;;;1.40;;
47431;SDS011;33183;52.290;6.144;2022-08-19T07:29:03;1.67;;;1.50;;
47431;SDS011;33183;52.290;6.144;2022-08-19T07:31:29;1.85;;;1.60;;
47431;SDS011;33183;52.290;6.144;2022-08-19T07:33:55;1.58;;;1.25;;
47431;SDS011;33183;52.290;6.144;2022-08-19T07:36:22;1.70;;;1.40;;
47431;SDS011;33183;52.290;6.144;2022-08-19T07:38:50;1.40;;;1.30;;
47431;SDS011;33183;52.290;6.144;2022-08-19T07:41:21;1.25;;;1.15;;
47431;SDS011;33183;52.290;6.144;2022-08-19T07:43:49;1.95;;;1.48;;
47431;SDS011;33183;52.290;6.144;2022-08-19T07:46:15;2.17;;;1.50;;
47431;SDS011;33183;52.290;6.144;2022-08-19T07:48:42;1.60;;;1.27;;
47431;SDS011;33183;52.290;6.144;2022-08-19T07:51:14;1.60;;;1.23;;
47431;SDS011;33183;52.290;6.144;2022-08-19T07:53:42;1.70;;;1.40;;
47431;SDS011;33183;52.290;6.144;2022-08-19T07:56:09;2.28;;;1.42;;
47431;SDS011;33183;52.290;6.144;2022-08-19T07:58:38;1.80;;;1.33;;
47431;SDS011;33183;52.290;6.144;2022-08-19T08:01:05;1.73;;;1.42;;
47431;SDS011;33183;52.290;6.144;2022-08-19T08:03:31;1.50;;;1.40;;
47431;SDS011;33183;52.290;6.144;2022-08-19T08:06:15;3.05;;;2.05;;
47431;SDS011;33183;52.290;6.144;2022-08-19T08:09:00;2.00;;;1.60;;
47431;SDS011;33183;52.290;6.144;2022-08-19T08:11:37;2.58;;;2.17;;
47431;SDS011;33183;52.290;6.144;2022-08-19T08:14:04;1.92;;;1.73;;
47431;SDS011;33183;52.290;6.144;2022-08-19T08:16:29;3.40;;;1.42;;
47431;SDS011;33183;52.290;6.144;2022-08-19T08:18:56;1.92;;;1.83;;
47431;SDS011;33183;52.290;6.144;2022-08-19T08:21:21;2.90;;;1.88;;
47431;SDS011;33183;52.290;6.144;2022-08-19T08:23:47;2.15;;;1.63;;
47431;SDS011;33183;52.290;6.144;2022-08-19T08:26:12;2.97;;;2.10;;
47431;SDS011;33183;52.290;6.144;2022-08-19T08:28:39;2.65;;;1.92;;
47431;SDS011;33183;52.290;6.144;2022-08-19T08:31:04;3.30;;;2.17;;
47431;SDS011;33183;52.290;6.144;2022-08-19T08:33:30;2.90;;;2.00;;
47431;SDS011;33183;52.290;6.144;2022-08-19T08:35:55;3.10;;;2.42;;
47431;SDS011;33183;52.290;6.144;2022-08-19T08:38:21;2.20;;;2.00;;
47431;SDS011;33183;52.290;6.144;2022-08-19T08:40:48;2.65;;;2.45;;
47431;SDS011;33183;52.290;6.144;2022-08-19T08:43:29;3.25;;;2.55;;
47431;SDS011;33183;52.290;6.144;2022-08-19T08:51:10;3.13;;;2.60;;
47431;SDS011;33183;52.290;6.144;2022-08-19T08:53:37;2.38;;;2.17;;
47431;SDS011;33183;52.290;6.144;2022-08-19T08:56:04;3.25;;;2.70;;
47431;SDS011;33183;52.290;6.144;2022-08-19T08:58:32;2.88;;;2.60;;
47431;SDS011;33183;52.290;6.144;2022-08-19T09:01:08;3.30;;;2.50;;
47431;SDS011;33183;52.290;6.144;2022-08-19T09:03:36;3.17;;;2.20;;
47431;SDS011;33183;52.290;6.144;2022-08-19T09:11:44;2.70;;;2.50;;
47431;SDS011;33183;52.290;6.144;2022-08-19T09:16:57;2.55;;;2.35;;
47431;SDS011;33183;52.290;6.144;2022-08-19T09:19:22;4.47;;;3.00;;
47431;SDS011;33183;52.290;6.144;2022-08-19T09:21:48;3.85;;;2.75;;
47431;SDS011;33183;52.290;6.144;2022-08-19T09:24:14;3.30;;;2.70;;
47431;SDS011;33183;52.290;6.144;2022-08-19T09:26:39;2.88;;;2.58;;
47431;SDS011;33183;52.290;6.144;2022-08-19T09:29:05;2.83;;;2.58;;
47431;SDS011;33183;52.290;6.144;2022-08-19T09:31:31;2.90;;;2.60;;
47431;SDS011;33183;52.290;6.144;2022-08-19T09:33:57;3.97;;;3.05;;
47431;SDS011;33183;52.290;6.144;2022-08-19T09:36:24;3.63;;;3.20;;
47431;SDS011;33183;52.290;6.144;2022-08-19T09:38:51;4.18;;;3.00;;
47431;SDS011;33183;52.290;6.144;2022-08-19T09:41:18;4.55;;;3.45;;
47431;SDS011;33183;52.290;6.144;2022-08-19T09:43:46;3.88;;;3.22;;
47431;SDS011;33183;52.290;6.144;2022-08-19T09:46:13;3.47;;;3.17;;
47431;SDS011;33183;52.290;6.144;2022-08-19T09:48:39;4.05;;;3.70;;
47431;SDS011;33183;52.290;6.144;2022-08-19T09:51:10;3.92;;;3.20;;
47431;SDS011;33183;52.290;6.144;2022-08-19T09:53:38;3.35;;;3.05;;
47431;SDS011;33183;52.290;6.144;2022-08-19T09:56:04;3.42;;;3.10;;
47431;SDS011;33183;52.290;6.144;2022-08-19T09:58:31;3.92;;;3.42;;
47431;SDS011;33183;52.290;6.144;2022-08-19T10:00:57;4.13;;;3.72;;
47431;SDS011;33183;52.290;6.144;2022-08-19T10:03:24;4.15;;;3.65;;
47431;SDS011;33183;52.290;6.144;2022-08-19T10:05:50;5.68;;;3.88;;
47431;SDS011;33183;52.290;6.144;2022-08-19T10:08:26;4.28;;;3.58;;
47431;SDS011;33183;52.290;6.144;2022-08-19T10:10:56;3.85;;;3.55;;
47431;SDS011;33183;52.290;6.144;2022-08-19T10:13:23;3.78;;;3.42;;
47431;SDS011;33183;52.290;6.144;2022-08-19T10:15:51;3.90;;;3.50;;
47431;SDS011;33183;52.290;6.144;2022-08-19T10:18:19;4.55;;;3.88;;
47431;SDS011;33183;52.290;6.144;2022-08-19T10:20:46;4.97;;;3.93;;
47431;SDS011;33183;52.290;6.144;2022-08-19T10:23:12;4.30;;;3.90;;
47431;SDS011;33183;52.290;6.144;2022-08-19T10:25:38;4.82;;;4.32;;
47431;SDS011;33183;52.290;6.144;2022-08-19T10:28:04;4.32;;;3.92;;
47431;SDS011;33183;52.290;6.144;2022-08-19T10:30:31;4.28;;;3.88;;
47431;SDS011;33183;52.290;6.144;2022-08-19T10:32:56;5.03;;;4.07;;
47431;SDS011;33183;52.290;6.144;2022-08-19T10:35:21;4.50;;;4.10;;
47431;SDS011;33183;52.290;6.144;2022-08-19T10:37:46;4.32;;;3.83;;
47431;SDS011;33183;52.290;6.144;2022-08-19T10:40:12;4.68;;;4.03;;
47431;SDS011;33183;52.290;6.144;2022-08-19T10:42:37;3.45;;;3.13;;
47431;SDS011;33183;52.290;6.144;2022-08-19T10:45:03;4.93;;;4.05;;
47431;SDS011;33183;52.290;6.144;2022-08-19T10:47:30;4.45;;;4.05;;
47431;SDS011;33183;52.290;6.144;2022-08-19T10:49:56;4.53;;;4.05;;
47431;SDS011;33183;52.290;6.144;2022-08-19T10:52:41;4.57;;;4.10;;
47431;SDS011;33183;52.290;6.144;2022-08-19T10:55:08;4.87;;;4.17;;
47431;SDS011;33183;52.290;6.144;2022-08-19T10:57:52;4.68;;;4.13;;
47431;SDS011;33183;52.290;6.144;2022-08-19T11:00:18;4.80;;;4.40;;
47431;SDS011;33183;52.290;6.144;2022-08-19T11:02:45;4.65;;;4.13;;
47431;SDS011;33183;52.290;6.144;2022-08-19T11:05:10;4.50;;;4.10;;
47431;SDS011;33183;52.290;6.144;2022-08-19T11:07:37;4.85;;;4.32;;
47431;SDS011;33183;52.290;6.144;2022-08-19T11:10:05;4.85;;;4.38;;
47431;SDS011;33183;52.290;6.144;2022-08-19T11:12:31;5.13;;;4.70;;
47431;SDS011;33183;52.290;6.144;2022-08-19T11:14:57;5.15;;;4.65;;
47431;SDS011;33183;52.290;6.144;2022-08-19T11:17:23;5.40;;;4.90;;
47431;SDS011;33183;52.290;6.144;2022-08-19T11:19:48;5.20;;;4.68;;
47431;SDS011;33183;52.290;6.144;2022-08-19T11:22:14;4.80;;;4.30;;
47431;SDS011;33183;52.290;6.144;2022-08-19T11:24:40;5.25;;;4.70;;
47431;SDS011;33183;52.290;6.144;2022-08-19T11:27:06;5.20;;;4.70;;
47431;SDS011;33183;52.290;6.144;2022-08-19T11:29:34;6.10;;;5.30;;
47431;SDS011;33183;52.290;6.144;2022-08-19T11:32:00;5.13;;;4.63;;
47431;SDS011;33183;52.290;6.144;2022-08-19T11:34:32;5.22;;;4.72;;
47431;SDS011;33183;52.290;6.144;2022-08-19T11:36:57;5.32;;;4.82;;
47431;SDS011;33183;52.290;6.144;2022-08-19T11:39:25;4.78;;;4.38;;
47431;SDS011;33183;52.290;6.144;2022-08-19T11:41:52;4.82;;;4.43;;
47431;SDS011;33183;52.290;6.144;2022-08-19T11:44:17;5.43;;;4.93;;
47431;SDS011;33183;52.290;6.144;2022-08-19T11:46:43;5.22;;;4.72;;
47431;SDS011;33183;52.290;6.144;2022-08-19T11:49:12;5.93;;;5.05;;
47431;SDS011;33183;52.290;6.144;2022-08-19T11:51:39;5.63;;;5.13;;
47431;SDS011;33183;52.290;6.144;2022-08-19T11:54:05;6.13;;;4.60;;
47431;SDS011;33183;52.290;6.144;2022-08-19T11:56:30;4.57;;;4.18;;
47431;SDS011;33183;52.290;6.144;2022-08-19T11:58:56;5.63;;;5.07;;
47431;SDS011;33183;52.290;6.144;2022-08-19T12:01:22;5.38;;;4.88;;
47431;SDS011;33183;52.290;6.144;2022-08-19T12:03:49;5.72;;;5.10;;
47431;SDS011;33183;52.290;6.144;2022-08-19T12:06:17;6.43;;;4.60;;
47431;SDS011;33183;52.290;6.144;2022-08-19T12:08:45;5.28;;;4.78;;
47431;SDS011;33183;52.290;6.144;2022-08-19T12:11:11;4.70;;;4.30;;
47431;SDS011;33183;52.290;6.144;2022-08-19T12:13:38;4.93;;;4.43;;
47431;SDS011;33183;52.290;6.144;2022-08-19T12:16:10;5.35;;;4.85;;
47431;SDS011;33183;52.290;6.144;2022-08-19T12:18:37;5.45;;;4.90;;
47431;SDS011;33183;52.290;6.144;2022-08-19T12:21:03;5.30;;;4.80;;
47431;SDS011;33183;52.290;6.144;2022-08-19T12:23:29;5.05;;;4.55;;
47431;SDS011;33183;52.290;6.144;2022-08-19T12:25:54;4.30;;;3.90;;
47431;SDS011;33183;52.290;6.144;2022-08-19T12:28:23;4.50;;;4.10;;
47431;SDS011;33183;52.290;6.144;2022-08-19T12:30:49;5.35;;;4.82;;
47431;SDS011;33183;52.290;6.144;2022-08-19T12:33:18;4.95;;;4.45;;
47431;SDS011;33183;52.290;6.144;2022-08-19T12:35:44;5.20;;;4.60;;
47431;SDS011;33183;52.290;6.144;2022-08-19T12:38:11;5.63;;;4.80;;
47431;SDS011;33183;52.290;6.144;2022-08-19T12:40:37;5.10;;;4.60;;
47431;SDS011;33183;52.290;6.144;2022-08-19T12:43:05;5.18;;;4.70;;
47431;SDS011;33183;52.290;6.144;2022-08-19T12:45:30;5.20;;;4.80;;
47431;SDS011;33183;52.290;6.144;2022-08-19T12:47:56;4.85;;;4.35;;
47431;SDS011;33183;52.290;6.144;2022-08-19T12:50:21;4.47;;;4.07;;
47431;SDS011;33183;52.290;6.144;2022-08-19T12:52:46;5.32;;;4.70;;
47431;SDS011;33183;52.290;6.144;2022-08-19T12:55:12;5.15;;;4.68;;
47431;SDS011;33183;52.290;6.144;2022-08-19T12:57:37;5.15;;;4.65;;
47431;SDS011;33183;52.290;6.144;2022-08-19T13:00:13;4.90;;;4.40;;
47431;SDS011;33183;52.290;6.144;2022-08-19T13:02:46;4.82;;;4.43;;
47431;SDS011;33183;52.290;6.144;2022-08-19T13:05:17;4.75;;;4.25;;
47431;SDS011;33183;52.290;6.144;2022-08-19T13:07:48;4.63;;;4.20;;
47431;SDS011;33183;52.290;6.144;2022-08-19T13:10:15;4.95;;;4.45;;
47431;SDS011;33183;52.290;6.144;2022-08-19T13:12:42;5.20;;;4.70;;
47431;SDS011;33183;52.290;6.144;2022-08-19T13:15:09;4.55;;;4.03;;
47431;SDS011;33183;52.290;6.144;2022-08-19T13:17:35;4.30;;;3.90;;
47431;SDS011;33183;52.290;6.144;2022-08-19T13:20:00;4.60;;;4.15;;
47431;SDS011;33183;52.290;6.144;2022-08-19T13:22:26;5.50;;;4.03;;
47431;SDS011;33183;52.290;6.144;2022-08-19T13:24:52;5.45;;;4.38;;
47431;SDS011;33183;52.290;6.144;2022-08-19T13:27:17;4.70;;;4.00;;
47431;SDS011;33183;52.290;6.144;2022-08-19T13:29:43;4.00;;;3.70;;
47431;SDS011;33183;52.290;6.144;2022-08-19T13:32:28;4.60;;;4.20;;
47431;SDS011;33183;52.290;6.144;2022-08-19T13:35:13;4.47;;;4.07;;
47431;SDS011;33183;52.290;6.144;2022-08-19T13:37:38;6.47;;;4.68;;
47431;SDS011;33183;52.290;6.144;2022-08-19T13:40:11;5.45;;;4.35;;
47431;SDS011;33183;52.290;6.144;2022-08-19T13:42:43;4.80;;;4.40;;
47431;SDS011;33183;52.290;6.144;2022-08-19T13:45:11;4.60;;;4.05;;
47431;SDS011;33183;52.290;6.144;2022-08-19T13:47:36;4.65;;;4.25;;
47431;SDS011;33183;52.290;6.144;2022-08-19T13:50:07;5.07;;;4.30;;
47431;SDS011;33183;52.290;6.144;2022-08-19T13:52:34;5.00;;;4.57;;
47431;SDS011;33183;52.290;6.144;2022-08-19T13:54:59;5.00;;;4.50;;
47431;SDS011;33183;52.290;6.144;2022-08-19T13:57:24;5.10;;;4.22;;
47431;SDS011;33183;52.290;6.144;2022-08-19T13:59:49;4.85;;;4.28;;
47431;SDS011;33183;52.290;6.144;2022-08-19T14:02:15;5.80;;;4.18;;
47431;SDS011;33183;52.290;6.144;2022-08-19T14:04:40;4.78;;;4.28;;
47431;SDS011;33183;52.290;6.144;2022-08-19T14:07:05;4.40;;;3.97;;
47431;SDS011;33183;52.290;6.144;2022-08-19T14:09:30;4.65;;;4.22;;
47431;SDS011;33183;52.290;6.144;2022-08-19T14:11:56;4.15;;;3.75;;
47431;SDS011;33183;52.290;6.144;2022-08-19T14:14:21;5.05;;;4.55;;
47431;SDS011;33183;52.290;6.144;2022-08-19T14:16:47;4.82;;;4.40;;
47431;SDS011;33183;52.290;6.144;2022-08-19T14:19:13;5.88;;;4.57;;
47431;SDS011;33183;52.290;6.144;2022-08-19T14:21:38;4.55;;;4.15;;
47431;SDS011;33183;52.290;6.144;2022-08-19T14:24:04;5.50;;;5.00;;
47431;SDS011;33183;52.290;6.144;2022-08-19T14:26:30;5.60;;;5.07;;
47431;SDS011;33183;52.290;6.144;2022-08-19T14:28:55;5.30;;;4.80;;
47431;SDS011;33183;52.290;6.144;2022-08-19T14:31:22;5.20;;;4.70;;
47431;SDS011;33183;52.290;6.144;2022-08-19T14:33:48;5.28;;;4.78;;
47431;SDS011;33183;52.290;6.144;2022-08-19T14:36:15;5.85;;;5.30;;
47431;SDS011;33183;52.290;6.144;2022-08-19T14:38:40;5.40;;;4.80;;
47431;SDS011;33183;52.290;6.144;2022-08-19T14:41:16;6.07;;;5.05;;
47431;SDS011;33183;52.290;6.144;2022-08-19T14:43:45;6.57;;;5.65;;
47431;SDS011;33183;52.290;6.144;2022-08-19T14:46:12;5.80;;;5.32;;
47431;SDS011;33183;52.290;6.144;2022-08-19T14:48:39;6.18;;;5.28;;
47431;SDS011;33183;52.290;6.144;2022-08-19T14:51:05;5.75;;;5.15;;
47431;SDS011;33183;52.290;6.144;2022-08-19T14:53:31;6.65;;;6.00;;
47431;SDS011;33183;52.290;6.144;2022-08-19T14:55:58;6.00;;;5.40;;
47431;SDS011;33183;52.290;6.144;2022-08-19T14:58:23;5.50;;;5.00;;
47431;SDS011;33183;52.290;6.144;2022-08-19T15:00:49;5.68;;;5.18;;
47431;SDS011;33183;52.290;6.144;2022-08-19T15:03:14;7.55;;;5.53;;
47431;SDS011;33183;52.290;6.144;2022-08-19T15:05:39;5.53;;;5.03;;